createdAt,value
2019-06-10T00:00:31.265Z,2.80
2019-06-10T00:02:58.343Z,2.40
2019-06-10T00:05:26.928Z,2.70
2019-06-10T00:07:55.856Z,2.87
2019-06-10T00:10:24.390Z,2.83
2019-06-10T00:12:55.345Z,2.70
2019-06-10T00:15:21.806Z,2.67
2019-06-10T00:18:01.236Z,2.63
2019-06-10T00:20:18.940Z,3.10
2019-06-10T00:22:47.557Z,2.53
2019-06-10T00:25:16.185Z,3.33
2019-06-10T00:27:44.756Z,2.80
2019-06-10T00:30:13.613Z,2.70
2019-06-10T00:32:42.191Z,2.53
2019-06-10T00:35:12.296Z,2.37
2019-06-10T00:37:41.734Z,2.50
2019-06-10T00:40:09.976Z,2.83
2019-06-10T00:42:36.530Z,2.43
2019-06-10T00:45:07.515Z,2.57
2019-06-10T00:47:34.091Z,2.60
2019-06-10T00:50:05.222Z,2.70
2019-06-10T00:52:31.478Z,2.80
2019-06-10T00:55:01.733Z,3.00
2019-06-10T00:57:28.623Z,2.97
2019-06-10T00:59:57.226Z,2.63
2019-06-10T01:02:25.819Z,2.87
2019-06-10T01:04:54.375Z,2.60
2019-06-10T01:07:22.960Z,2.47
2019-06-10T01:09:51.776Z,2.57
2019-06-10T01:12:21.126Z,2.63
2019-06-10T01:14:48.672Z,2.87
2019-06-10T01:17:17.414Z,2.27
2019-06-10T01:19:46.066Z,2.77
2019-06-10T01:22:15.857Z,2.27
2019-06-10T01:24:43.130Z,2.87
2019-06-10T01:27:13.577Z,2.90
2019-06-10T01:29:41.598Z,2.10
2019-06-10T01:32:09.749Z,2.33
2019-06-10T01:34:37.495Z,2.80
2019-06-10T01:37:06.766Z,2.67
2019-06-10T01:39:34.630Z,2.70
2019-06-10T01:42:03.168Z,2.57
2019-06-10T01:44:31.694Z,3.77
2019-06-10T01:47:01.004Z,2.80
2019-06-10T01:49:30.806Z,2.23
2019-06-10T01:51:57.659Z,2.70
2019-06-10T01:54:26.189Z,2.43
2019-06-10T01:56:54.745Z,2.90
2019-06-10T01:59:23.262Z,2.90
2019-06-10T02:01:56.058Z,2.00
2019-06-10T02:04:32.147Z,2.60
2019-06-10T02:07:01.288Z,2.90
2019-06-10T02:09:30.853Z,2.50
2019-06-10T02:11:56.725Z,2.67
2019-06-10T02:14:25.275Z,2.10
2019-06-10T02:16:54.530Z,2.10
2019-06-10T02:19:23.418Z,2.40
2019-06-10T02:21:51.979Z,2.80
2019-06-10T02:24:23.336Z,2.30
2019-06-10T02:26:51.470Z,2.80
2019-06-10T02:29:17.695Z,2.13
2019-06-10T02:31:46.365Z,2.50
2019-06-10T02:34:18.396Z,2.27
2019-06-10T02:36:44.573Z,2.20
2019-06-10T02:39:16.649Z,2.33
2019-06-10T02:41:44.191Z,2.67
2019-06-10T02:44:09.274Z,2.80
2019-06-10T02:46:37.819Z,2.40
2019-06-10T02:49:23.337Z,2.27
2019-06-10T02:51:35.908Z,2.13
2019-06-10T02:54:04.823Z,3.00
2019-06-10T02:56:36.377Z,2.63
2019-06-10T02:59:03.396Z,2.50
2019-06-10T03:01:34.240Z,2.40
2019-06-10T03:03:58.580Z,2.50
2019-06-10T03:06:33.380Z,2.03
2019-06-10T03:08:55.699Z,2.50
2019-06-10T03:11:27.969Z,2.83
2019-06-10T03:13:53.168Z,2.73
2019-06-10T03:16:26.333Z,2.43
2019-06-10T03:18:54.843Z,2.77
2019-06-10T03:21:25.828Z,2.30
2019-06-10T03:23:53.110Z,2.30
2019-06-10T03:26:23.943Z,2.43
2019-06-10T03:28:51.920Z,2.47
2019-06-10T03:31:20.514Z,2.40
2019-06-10T03:33:47.942Z,2.70
2019-06-10T03:36:16.196Z,2.57
2019-06-10T03:38:44.150Z,1.60
2019-06-10T03:41:12.721Z,2.57
2019-06-10T03:43:43.025Z,2.37
2019-06-10T03:46:09.851Z,2.43
2019-06-10T03:48:38.352Z,2.63
2019-06-10T03:51:06.922Z,2.20
2019-06-10T03:53:35.676Z,2.17
2019-06-10T03:56:04.279Z,2.30
2019-06-10T03:58:33.016Z,2.47
2019-06-10T04:01:03.089Z,2.50
2019-06-10T04:03:30.083Z,2.60
2019-06-10T04:05:58.623Z,2.40
2019-06-10T04:08:28.058Z,2.40
2019-06-10T04:10:55.706Z,2.40
2019-06-10T04:13:25.466Z,3.10
2019-06-10T04:15:53.476Z,3.00
2019-06-10T04:18:22.525Z,2.77
2019-06-10T04:20:49.952Z,2.30
2019-06-10T04:23:19.627Z,2.67
2019-06-10T04:25:47.055Z,2.73
2019-06-10T04:28:15.606Z,2.60
2019-06-10T04:30:44.400Z,2.40
2019-06-10T04:33:13.083Z,2.40
2019-06-10T04:35:42.786Z,2.70
2019-06-10T04:38:10.179Z,2.63
2019-06-10T04:40:38.695Z,2.50
2019-06-10T04:43:07.211Z,2.40
2019-06-10T04:45:35.742Z,2.53
2019-06-10T04:48:04.332Z,2.60
2019-06-10T04:50:41.649Z,2.73
2019-06-10T04:53:02.278Z,2.60
2019-06-10T04:55:32.491Z,2.30
2019-06-10T04:57:58.814Z,2.20
2019-06-10T05:00:28.778Z,2.60
2019-06-10T05:02:55.935Z,3.27
2019-06-10T05:05:26.819Z,2.70
2019-06-10T05:07:53.176Z,2.47
2019-06-10T05:10:23.797Z,2.23
2019-06-10T05:12:52.432Z,2.23
2019-06-10T05:15:19.562Z,2.63
2019-06-10T05:17:47.615Z,2.73
2019-06-10T05:20:16.247Z,3.00
2019-06-10T05:22:44.775Z,2.57
2019-06-10T05:25:13.694Z,2.03
2019-06-10T05:27:42.946Z,2.20
2019-06-10T05:30:12.266Z,1.90
2019-06-10T05:32:39.698Z,2.13
2019-06-10T05:35:08.412Z,2.00
2019-06-10T05:37:37.112Z,1.93
2019-06-10T05:40:06.366Z,1.93
2019-06-10T05:42:36.115Z,1.77
2019-06-10T05:45:04.103Z,2.33
2019-06-10T05:47:35.924Z,1.90
2019-06-10T05:50:03.202Z,2.03
2019-06-10T05:52:30.892Z,2.00
2019-06-10T05:54:58.513Z,1.70
2019-06-10T05:57:27.427Z,1.80
2019-06-10T05:59:55.986Z,2.00
2019-06-10T06:02:25.726Z,1.53
2019-06-10T06:04:53.204Z,2.10
2019-06-10T06:07:22.257Z,2.17
2019-06-10T06:09:50.323Z,1.60
2019-06-10T06:12:18.883Z,1.93
2019-06-10T06:14:47.658Z,1.43
2019-06-10T06:17:16.867Z,1.80
2019-06-10T06:19:44.882Z,1.90
2019-06-10T06:22:13.414Z,1.50
2019-06-10T06:24:42.794Z,1.53
2019-06-10T06:27:12.942Z,1.70
2019-06-10T06:29:39.330Z,1.60
2019-06-10T06:32:07.892Z,1.90
2019-06-10T06:34:38.669Z,1.80
2019-06-10T06:37:05.046Z,2.00
2019-06-10T06:39:35.128Z,1.50
2019-06-10T06:42:02.350Z,1.60
2019-06-10T06:44:33.022Z,1.50
2019-06-10T06:46:59.380Z,1.40
2019-06-10T06:49:27.963Z,1.37
2019-06-10T06:51:59.318Z,1.77
2019-06-10T06:54:25.062Z,1.40
2019-06-10T06:56:53.607Z,1.47
2019-06-10T06:59:22.437Z,1.33
2019-06-10T07:01:52.530Z,1.60
2019-06-10T07:04:19.790Z,1.30
2019-06-10T07:06:48.557Z,1.27
2019-06-10T07:09:17.262Z,1.47
2019-06-10T07:11:46.024Z,1.30
2019-06-10T07:14:14.564Z,1.23
2019-06-10T07:16:46.120Z,1.53
2019-06-10T07:19:13.177Z,1.60
2019-06-10T07:22:02.361Z,1.57
2019-06-10T07:24:09.267Z,0.93
2019-06-10T07:26:44.171Z,1.27
2019-06-10T07:29:06.595Z,1.20
2019-06-10T07:31:36.535Z,1.40
2019-06-10T07:34:03.698Z,1.20
2019-06-10T07:36:32.943Z,1.10
2019-06-10T07:39:03.348Z,1.23
2019-06-10T07:41:29.415Z,1.13
2019-06-10T07:43:57.924Z,1.30
2019-06-10T07:46:26.607Z,1.10
2019-06-10T07:48:56.648Z,1.40
2019-06-10T07:51:23.891Z,1.00
2019-06-10T07:53:52.918Z,1.17
2019-06-10T07:56:23.274Z,1.17
2019-06-10T07:58:52.533Z,0.90
2019-06-10T08:01:18.705Z,1.10
2019-06-10T08:03:47.391Z,0.90
2019-06-10T08:06:15.967Z,1.00
2019-06-10T08:08:45.430Z,1.30
2019-06-10T08:11:14.048Z,1.30
2019-06-10T08:13:44.678Z,0.97
2019-06-10T08:16:12.947Z,1.20
2019-06-10T08:19:08.039Z,1.00
2019-06-10T08:21:08.188Z,1.23
2019-06-10T08:23:37.354Z,1.10
2019-06-10T08:26:05.319Z,1.37
2019-06-10T08:28:33.930Z,0.90
2019-06-10T08:31:03.663Z,1.10
2019-06-10T08:33:33.104Z,0.93
2019-06-10T08:36:00.696Z,1.03
2019-06-10T08:38:28.670Z,0.93
2019-06-10T08:40:57.231Z,1.10
2019-06-10T08:43:26.093Z,1.10
2019-06-10T08:45:54.656Z,0.70
2019-06-10T08:48:23.319Z,0.80
2019-06-10T08:50:53.124Z,1.00
2019-06-10T08:53:22.502Z,1.10
2019-06-10T08:55:50.272Z,0.73
2019-06-10T08:58:17.769Z,0.87
2019-06-10T09:00:49.297Z,1.00
2019-06-10T09:03:14.959Z,0.83
2019-06-10T09:05:47.470Z,0.90
2019-06-10T09:08:13.048Z,0.93
2019-06-10T09:10:43.974Z,0.90
2019-06-10T09:13:09.470Z,1.07
2019-06-10T09:15:38.759Z,0.90
2019-06-10T09:18:06.776Z,1.00
2019-06-10T09:20:35.311Z,1.57
2019-06-10T09:23:17.820Z,1.10
2019-06-10T09:25:33.510Z,0.90
2019-06-10T09:28:02.384Z,1.00
2019-06-10T09:30:30.214Z,0.97
2019-06-10T09:33:00.888Z,1.10
2019-06-10T09:35:27.381Z,1.00
2019-06-10T09:37:56.011Z,1.03
2019-06-10T09:40:26.124Z,0.93
2019-06-10T09:42:55.201Z,1.10
2019-06-10T09:45:23.403Z,1.00
2019-06-10T09:47:59.425Z,0.87
2019-06-10T09:50:24.951Z,1.03
2019-06-10T09:52:57.055Z,0.80
2019-06-10T09:55:23.355Z,1.20
2019-06-10T09:57:58.427Z,1.00
2019-06-10T10:00:29.212Z,1.20
2019-06-10T10:02:56.465Z,1.03
2019-06-10T10:05:25.007Z,0.90
2019-06-10T10:07:57.255Z,1.43
2019-06-10T10:10:24.032Z,1.03
2019-06-10T10:12:55.626Z,1.03
2019-06-10T10:15:29.792Z,0.97
2019-06-10T10:17:49.939Z,1.10
2019-06-10T10:20:18.003Z,1.20
2019-06-10T10:22:47.641Z,1.07
2019-06-10T10:25:15.206Z,0.80
2019-06-10T10:27:47.323Z,0.90
2019-06-10T10:30:13.506Z,1.00
2019-06-10T10:32:44.298Z,0.80
2019-06-10T10:35:12.606Z,0.97
2019-06-10T10:37:39.066Z,0.80
2019-06-10T10:40:07.695Z,1.13
2019-06-10T10:42:45.389Z,1.10
2019-06-10T10:45:05.467Z,0.80
2019-06-10T10:47:33.984Z,1.13
2019-06-10T10:50:02.973Z,0.80
2019-06-10T10:52:33.013Z,1.10
2019-06-10T10:55:04.143Z,0.93
2019-06-10T10:57:28.366Z,0.80
2019-06-10T10:59:57.005Z,1.00
2019-06-10T11:02:25.558Z,1.20
2019-06-10T11:04:56.800Z,1.20
2019-06-10T11:07:22.695Z,1.00
2019-06-10T11:09:55.173Z,1.50
2019-06-10T11:12:22.806Z,1.00
2019-06-10T11:14:49.239Z,1.13
2019-06-10T11:17:18.127Z,1.23
2019-06-10T11:19:47.312Z,0.73
2019-06-10T11:22:15.754Z,1.07
2019-06-10T11:24:46.099Z,0.90
2019-06-10T11:27:13.160Z,1.03
2019-06-10T11:29:42.280Z,1.10
2019-06-10T11:32:10.226Z,1.07
2019-06-10T11:34:38.786Z,1.00
2019-06-10T11:37:07.339Z,0.80
2019-06-10T11:39:38.656Z,1.00
2019-06-10T11:42:04.551Z,1.00
2019-06-10T11:44:33.953Z,1.13
2019-06-10T11:47:03.225Z,1.10
2019-06-10T11:49:30.258Z,1.00
2019-06-10T11:51:59.697Z,0.80
2019-06-10T11:54:27.498Z,1.57
2019-06-10T11:56:57.789Z,1.10
2019-06-10T11:59:32.757Z,1.20
2019-06-10T12:02:01.987Z,1.00
2019-06-10T12:04:28.255Z,1.40
2019-06-10T12:06:57.165Z,1.00
2019-06-10T12:09:25.603Z,0.80
2019-06-10T12:11:58.279Z,1.40
2019-06-10T12:14:26.846Z,1.00
2019-06-10T12:17:17.650Z,1.10
2019-06-10T12:19:20.138Z,0.80
2019-06-10T12:21:49.767Z,1.43
2019-06-10T12:24:17.745Z,0.80
2019-06-10T12:26:46.420Z,1.03
2019-06-10T12:29:14.966Z,0.90
2019-06-10T12:31:43.495Z,1.00
2019-06-10T12:34:12.654Z,1.17
2019-06-10T12:36:41.041Z,1.10
2019-06-10T12:39:10.792Z,1.10
2019-06-10T12:41:38.374Z,1.30
2019-06-10T12:44:06.922Z,1.33
2019-06-10T12:46:35.456Z,1.30
2019-06-10T12:49:08.549Z,0.83
2019-06-10T12:51:32.960Z,1.20
2019-06-10T12:54:05.752Z,1.23
2019-06-10T12:56:32.625Z,1.30
2019-06-10T12:58:59.715Z,1.00
2019-06-10T13:01:27.383Z,1.47
2019-06-10T13:03:57.467Z,1.30
2019-06-10T13:06:24.673Z,1.10
2019-06-10T13:08:53.329Z,1.13
2019-06-10T13:11:23.380Z,1.07
2019-06-10T13:13:52.922Z,1.40
2019-06-10T13:16:19.029Z,1.17
2019-06-10T13:18:47.796Z,1.10
2019-06-10T13:21:17.745Z,1.00
2019-06-10T13:23:45.380Z,1.17
2019-06-10T13:26:16.692Z,1.10
2019-06-10T13:28:44.075Z,1.30
2019-06-10T13:31:11.132Z,1.70
2019-06-10T13:33:39.658Z,1.90
2019-06-10T13:36:08.663Z,1.20
2019-06-10T13:38:36.878Z,1.73
2019-06-10T13:41:05.799Z,1.20
2019-06-10T13:43:34.132Z,1.40
2019-06-10T13:46:03.260Z,1.47
2019-06-10T13:48:32.090Z,1.30
2019-06-10T13:51:01.356Z,1.53
2019-06-10T13:53:28.398Z,1.43
2019-06-10T13:56:17.200Z,1.20
2019-06-10T13:58:25.522Z,1.30
2019-06-10T14:00:54.074Z,1.30
2019-06-10T14:03:23.009Z,1.20
2019-06-10T14:05:57.724Z,1.17
2019-06-10T14:08:20.089Z,1.20
2019-06-10T14:10:48.614Z,1.50
2019-06-10T14:13:17.251Z,1.03
2019-06-10T14:15:45.788Z,1.10
2019-06-10T14:18:15.350Z,1.50
2019-06-10T14:20:44.163Z,1.50
2019-06-10T14:23:13.613Z,1.23
2019-06-10T14:25:42.416Z,1.47
2019-06-10T14:28:11.972Z,1.40
2019-06-10T14:30:37.830Z,1.03
2019-06-10T14:33:07.431Z,1.20
2019-06-10T14:35:34.974Z,1.20
2019-06-10T14:38:05.148Z,1.30
2019-06-10T14:40:32.543Z,1.10
2019-06-10T14:43:00.866Z,1.27
2019-06-10T14:45:29.552Z,1.20
2019-06-10T14:47:58.872Z,1.10
2019-06-10T14:50:26.694Z,0.87
2019-06-10T14:52:55.254Z,1.43
2019-06-10T14:55:23.804Z,1.63
2019-06-10T14:57:53.244Z,1.17
2019-06-10T15:00:23.382Z,1.50
2019-06-10T15:02:49.581Z,1.20
2019-06-10T15:05:19.535Z,1.20
2019-06-10T15:07:46.843Z,1.20
2019-06-10T15:10:17.673Z,1.00
2019-06-10T15:12:43.994Z,1.43
2019-06-10T15:15:12.632Z,1.43
2019-06-10T15:17:43.112Z,1.40
2019-06-10T15:20:09.921Z,1.40
2019-06-10T15:22:38.456Z,1.30
2019-06-10T15:25:07.068Z,1.10
2019-06-10T15:27:35.839Z,1.10
2019-06-10T15:30:12.231Z,1.03
2019-06-10T15:32:34.803Z,2.07
2019-06-10T15:35:03.341Z,1.40
2019-06-10T15:37:32.901Z,1.20
2019-06-10T15:39:59.415Z,1.50
2019-06-10T15:42:28.296Z,1.50
2019-06-10T15:44:56.851Z,1.03
2019-06-10T15:47:26.572Z,1.20
2019-06-10T15:49:54.098Z,1.70
2019-06-10T15:52:25.092Z,1.07
2019-06-10T15:54:52.547Z,1.70
2019-06-10T15:57:37.925Z,1.13
2019-06-10T15:59:48.879Z,1.40
2019-06-10T16:02:19.280Z,1.20
2019-06-10T16:04:46.031Z,1.20
2019-06-10T16:07:16.213Z,1.67
2019-06-10T16:09:43.535Z,1.37
2019-06-10T16:12:14.723Z,1.00
2019-06-10T16:14:42.493Z,1.27
2019-06-10T16:17:09.291Z,1.13
2019-06-10T16:19:37.874Z,1.13
2019-06-10T16:22:06.531Z,1.30
2019-06-10T16:24:35.050Z,1.20
2019-06-10T16:27:03.622Z,1.53
2019-06-10T16:29:33.343Z,1.13
2019-06-10T16:32:02.527Z,1.03
2019-06-10T16:34:32.383Z,1.07
2019-06-10T16:36:58.498Z,1.23
2019-06-10T16:39:27.020Z,1.30
2019-06-10T16:41:55.547Z,1.10
2019-06-10T16:44:26.307Z,1.50
2019-06-10T16:46:52.821Z,1.30
2019-06-10T16:49:21.519Z,1.03
2019-06-10T16:51:52.038Z,1.30
2019-06-10T16:54:19.530Z,1.47
2019-06-10T16:56:47.707Z,1.40
2019-06-10T16:59:16.243Z,1.27
2019-06-10T17:01:45.334Z,1.20
2019-06-10T17:04:13.904Z,1.10
2019-06-10T17:06:42.502Z,1.30
2019-06-10T17:09:13.303Z,1.60
2019-06-10T17:11:39.687Z,1.10
2019-06-10T17:14:08.311Z,1.40
2019-06-10T17:16:40.348Z,1.23
2019-06-10T17:19:05.611Z,1.60
2019-06-10T17:21:34.693Z,1.60
2019-06-10T17:24:03.470Z,1.20
2019-06-10T17:26:37.715Z,1.40
2019-06-10T17:29:02.685Z,1.33
2019-06-10T17:31:31.886Z,1.40
2019-06-10T17:33:57.595Z,1.30
2019-06-10T17:36:29.239Z,1.30
2019-06-10T17:38:54.763Z,1.20
2019-06-10T17:41:26.232Z,1.23
2019-06-10T17:43:52.178Z,1.40
2019-06-10T17:46:21.742Z,1.50
2019-06-10T17:48:49.160Z,1.10
2019-06-10T17:51:17.713Z,1.40
2019-06-10T17:53:46.262Z,1.57
2019-06-10T17:56:14.892Z,1.20
2019-06-10T17:58:54.328Z,1.43
2019-06-10T18:01:12.912Z,1.50
2019-06-10T18:03:42.893Z,1.77
2019-06-10T18:06:09.354Z,1.40
2019-06-10T18:08:40.647Z,1.33
2019-06-10T18:11:06.754Z,1.50
2019-06-10T18:13:36.072Z,1.47
2019-06-10T18:16:03.987Z,1.40
2019-06-10T18:18:36.647Z,1.53
2019-06-10T18:21:03.470Z,1.67
2019-06-10T18:23:30.836Z,1.67
2019-06-10T18:25:58.587Z,1.10
2019-06-10T18:28:27.103Z,1.63
2019-06-10T18:30:55.622Z,1.57
2019-06-10T18:33:25.593Z,1.50
2019-06-10T18:35:53.467Z,1.60
2019-06-10T18:38:21.761Z,1.50
2019-06-10T18:40:53.345Z,1.47
2019-06-10T18:43:19.435Z,1.27
2019-06-10T18:45:48.080Z,1.47
2019-06-10T18:48:16.639Z,1.57
2019-06-10T18:50:46.814Z,1.27
2019-06-10T18:53:15.335Z,1.53
2019-06-10T18:55:44.127Z,2.03
2019-06-10T18:58:12.688Z,1.60
2019-06-10T19:00:58.749Z,1.43
2019-06-10T19:03:15.759Z,1.37
2019-06-10T19:05:39.406Z,1.30
2019-06-10T19:08:07.219Z,1.20
2019-06-10T19:10:37.101Z,1.40
2019-06-10T19:13:04.489Z,1.33
2019-06-10T19:15:33.634Z,1.40
2019-06-10T19:18:03.160Z,1.77
2019-06-10T19:20:34.598Z,1.60
2019-06-10T19:22:58.799Z,1.80
2019-06-10T19:25:27.354Z,1.33
2019-06-10T19:27:56.059Z,1.40
2019-06-10T19:30:24.694Z,1.33
2019-06-10T19:32:53.382Z,1.40
2019-06-10T19:35:22.429Z,1.30
2019-06-10T19:37:50.622Z,1.50
2019-06-10T19:40:19.212Z,1.40
2019-06-10T19:42:47.769Z,1.23
2019-06-10T19:45:16.403Z,1.40
2019-06-10T19:47:45.853Z,1.60
2019-06-10T19:50:13.699Z,1.33
2019-06-10T19:52:45.287Z,1.50
2019-06-10T19:55:13.096Z,1.60
2019-06-10T19:57:39.627Z,1.60
2019-06-10T20:00:12.085Z,1.30
2019-06-10T20:02:37.575Z,1.40
2019-06-10T20:05:06.243Z,1.20
2019-06-10T20:07:35.846Z,1.20
2019-06-10T20:10:03.727Z,1.53
2019-06-10T20:12:32.468Z,1.33
2019-06-10T20:15:02.315Z,1.30
2019-06-10T20:17:29.618Z,1.40
2019-06-10T20:19:58.411Z,1.40
2019-06-10T20:22:26.969Z,1.70
2019-06-10T20:24:55.503Z,1.20
2019-06-10T20:27:24.201Z,1.10
2019-06-10T20:30:04.509Z,1.50
2019-06-10T20:32:22.705Z,1.40
2019-06-10T20:34:52.698Z,1.07
2019-06-10T20:37:18.759Z,1.30
2019-06-10T20:39:47.854Z,1.20
2019-06-10T20:42:16.002Z,1.77
2019-06-10T20:44:45.999Z,2.17
2019-06-10T20:47:14.309Z,1.57
2019-06-10T20:49:44.576Z,1.50
2019-06-10T20:52:12.253Z,1.20
2019-06-10T20:54:40.786Z,1.80
2019-06-10T20:57:07.858Z,1.53
2019-06-10T20:59:36.466Z,1.53
2019-06-10T21:02:05.060Z,1.70
2019-06-10T21:04:33.651Z,1.77
2019-06-10T21:07:02.627Z,1.80
2019-06-10T21:09:32.715Z,1.50
2019-06-10T21:12:02.099Z,1.73
2019-06-10T21:14:28.930Z,1.87
2019-06-10T21:16:57.479Z,1.50
2019-06-10T21:19:25.998Z,2.30
2019-06-10T21:21:55.004Z,2.03
2019-06-10T21:24:23.301Z,2.23
2019-06-10T21:26:54.656Z,2.07
2019-06-10T21:29:20.326Z,2.37
2019-06-10T21:31:50.428Z,1.93
2019-06-10T21:34:17.578Z,2.00
2019-06-10T21:36:47.333Z,2.43
2019-06-10T21:39:15.170Z,4.33
2019-06-10T21:41:45.270Z,2.80
2019-06-10T21:44:13.190Z,3.47
2019-06-10T21:46:44.477Z,2.40
2019-06-10T21:49:12.684Z,2.33
2019-06-10T21:51:38.586Z,2.30
2019-06-10T21:54:07.034Z,2.30
2019-06-10T21:56:35.577Z,2.70
2019-06-10T21:59:04.315Z,2.57
2019-06-10T22:01:33.049Z,2.33
2019-06-10T22:04:04.459Z,2.60
2019-06-10T22:06:30.285Z,2.40
2019-06-10T22:08:58.847Z,2.17
2019-06-10T22:11:27.427Z,2.37
2019-06-10T22:13:56.420Z,3.80
2019-06-10T22:16:24.599Z,2.50
2019-06-10T22:18:53.278Z,2.27
2019-06-10T22:21:22.665Z,2.47
2019-06-10T22:23:51.494Z,2.30
2019-06-10T22:26:18.956Z,2.30
2019-06-10T22:28:47.491Z,2.60
2019-06-10T22:31:22.915Z,2.70
2019-06-10T22:33:45.281Z,2.70
2019-06-10T22:36:13.304Z,2.70
2019-06-10T22:38:42.059Z,2.43
2019-06-10T22:41:12.287Z,2.60
2019-06-10T22:43:39.551Z,2.63
2019-06-10T22:46:08.086Z,2.47
2019-06-10T22:48:36.649Z,2.43
2019-06-10T22:51:05.186Z,2.40
2019-06-10T22:53:33.731Z,2.60
2019-06-10T22:56:02.958Z,2.70
2019-06-10T22:58:30.854Z,2.97
2019-06-10T23:01:00.285Z,3.90
2019-06-10T23:03:28.057Z,2.53
2019-06-10T23:05:56.667Z,2.40
2019-06-10T23:08:25.218Z,2.80
2019-06-10T23:10:56.597Z,3.00
2019-06-10T23:13:23.085Z,2.60
2019-06-10T23:15:53.469Z,3.17
2019-06-10T23:18:22.299Z,2.67
2019-06-10T23:20:49.218Z,2.90
2019-06-10T23:23:17.059Z,2.83
2019-06-10T23:25:45.578Z,2.90
2019-06-10T23:28:14.135Z,2.90
2019-06-10T23:30:43.142Z,2.90
2019-06-10T23:33:12.515Z,2.83
2019-06-10T23:35:39.850Z,3.40
2019-06-10T23:38:08.671Z,3.00
2019-06-10T23:40:37.206Z,2.70
2019-06-10T23:43:06.253Z,2.80
2019-06-10T23:45:34.855Z,2.80
2019-06-10T23:48:05.028Z,3.40
2019-06-10T23:50:32.855Z,3.47
2019-06-10T23:53:06.648Z,4.23
2019-06-10T23:55:31.911Z,3.00
2019-06-10T23:57:58.348Z,3.23
